sensor_id;sensor_type;location;lat;lon;timestamp;temperature;humidity
23629;DHT22;11991;57.150;-2.134;2024-03-25T00:01:40;4.40;99.90
23629;DHT22;11991;57.150;-2.134;2024-03-25T00:04:06;4.40;99.90
23629;DHT22;11991;57.150;-2.134;2024-03-25T00:06:32;4.40;99.90
23629;DHT22;11991;57.150;-2.134;2024-03-25T00:09:03;4.50;99.90
23629;DHT22;11991;57.150;-2.134;2024-03-25T00:11:29;4.50;99.90
23629;DHT22;11991;57.150;-2.134;2024-03-25T00:13:55;4.60;99.90
23629;DHT22;11991;57.150;-2.134;2024-03-25T00:16:22;4.70;99.90
23629;DHT22;11991;57.150;-2.134;2024-03-25T00:18:48;4.80;99.90
23629;DHT22;11991;57.150;-2.134;2024-03-25T00:21:14;4.80;99.90
23629;DHT22;11991;57.150;-2.134;2024-03-25T00:23:40;4.90;99.90
23629;DHT22;11991;57.150;-2.134;2024-03-25T00:26:07;4.90;99.90
23629;DHT22;11991;57.150;-2.134;2024-03-25T00:28:33;4.90;99.90
23629;DHT22;11991;57.150;-2.134;2024-03-25T00:30:59;4.90;99.90
23629;DHT22;11991;57.150;-2.134;2024-03-25T00:33:25;4.90;99.90
23629;DHT22;11991;57.150;-2.134;2024-03-25T00:35:51;4.90;99.90
23629;DHT22;11991;57.150;-2.134;2024-03-25T00:38:18;4.90;99.90
23629;DHT22;11991;57.150;-2.134;2024-03-25T00:40:45;4.90;99.90
23629;DHT22;11991;57.150;-2.134;2024-03-25T00:43:11;4.90;99.90
23629;DHT22;11991;57.150;-2.134;2024-03-25T00:45:38;4.90;99.90
23629;DHT22;11991;57.150;-2.134;2024-03-25T00:48:04;4.90;99.90
23629;DHT22;11991;57.150;-2.134;2024-03-25T00:50:30;5.00;99.90
23629;DHT22;11991;57.150;-2.134;2024-03-25T00:52:56;5.10;99.90
23629;DHT22;11991;57.150;-2.134;2024-03-25T00:55:22;5.10;99.90
23629;DHT22;11991;57.150;-2.134;2024-03-25T00:57:49;5.20;99.90
23629;DHT22;11991;57.150;-2.134;2024-03-25T01:00:16;5.20;99.90
23629;DHT22;11991;57.150;-2.134;2024-03-25T01:02:42;5.20;99.90
23629;DHT22;11991;57.150;-2.134;2024-03-25T01:05:08;5.30;99.90
23629;DHT22;11991;57.150;-2.134;2024-03-25T01:07:35;5.30;99.90
23629;DHT22;11991;57.150;-2.134;2024-03-25T01:10:02;5.30;99.90
23629;DHT22;11991;57.150;-2.134;2024-03-25T01:12:28;5.30;99.90
23629;DHT22;11991;57.150;-2.134;2024-03-25T01:14:54;5.30;99.90
23629;DHT22;11991;57.150;-2.134;2024-03-25T01:17:20;5.40;99.90
23629;DHT22;11991;57.150;-2.134;2024-03-25T01:19:46;5.40;99.90
23629;DHT22;11991;57.150;-2.134;2024-03-25T01:22:12;5.40;99.90
23629;DHT22;11991;57.150;-2.134;2024-03-25T01:24:38;5.40;99.90
23629;DHT22;11991;57.150;-2.134;2024-03-25T01:27:04;5.40;99.90
23629;DHT22;11991;57.150;-2.134;2024-03-25T01:29:30;5.40;99.90
23629;DHT22;11991;57.150;-2.134;2024-03-25T01:31:57;5.40;99.90
23629;DHT22;11991;57.150;-2.134;2024-03-25T01:34:25;5.40;99.90
23629;DHT22;11991;57.150;-2.134;2024-03-25T01:36:51;5.40;99.90
23629;DHT22;11991;57.150;-2.134;2024-03-25T01:39:20;5.50;99.90
23629;DHT22;11991;57.150;-2.134;2024-03-25T01:41:46;5.50;99.90
23629;DHT22;11991;57.150;-2.134;2024-03-25T01:44:13;5.50;99.90
23629;DHT22;11991;57.150;-2.134;2024-03-25T01:46:39;5.50;99.90
23629;DHT22;11991;57.150;-2.134;2024-03-25T01:49:06;5.60;99.90
23629;DHT22;11991;57.150;-2.134;2024-03-25T01:51:33;5.60;99.90
23629;DHT22;11991;57.150;-2.134;2024-03-25T01:54:01;5.60;99.90
23629;DHT22;11991;57.150;-2.134;2024-03-25T01:56:31;5.60;99.90
23629;DHT22;11991;57.150;-2.134;2024-03-25T01:58:59;5.60;99.90
23629;DHT22;11991;57.150;-2.134;2024-03-25T02:01:27;5.50;99.90
23629;DHT22;11991;57.150;-2.134;2024-03-25T02:03:54;5.40;99.90
23629;DHT22;11991;57.150;-2.134;2024-03-25T02:06:21;5.50;99.90
23629;DHT22;11991;57.150;-2.134;2024-03-25T02:08:52;5.50;99.90
23629;DHT22;11991;57.150;-2.134;2024-03-25T02:11:18;5.60;99.90
23629;DHT22;11991;57.150;-2.134;2024-03-25T02:13:45;5.60;99.90
23629;DHT22;11991;57.150;-2.134;2024-03-25T02:16:11;5.60;99.90
23629;DHT22;11991;57.150;-2.134;2024-03-25T02:18:37;5.70;99.90
23629;DHT22;11991;57.150;-2.134;2024-03-25T02:21:03;5.70;99.90
23629;DHT22;11991;57.150;-2.134;2024-03-25T02:23:31;5.70;99.90
23629;DHT22;11991;57.150;-2.134;2024-03-25T02:25:57;5.70;99.90
23629;DHT22;11991;57.150;-2.134;2024-03-25T02:28:24;5.60;99.90
23629;DHT22;11991;57.150;-2.134;2024-03-25T02:30:50;5.60;99.90
23629;DHT22;11991;57.150;-2.134;2024-03-25T02:33:16;5.60;99.90
23629;DHT22;11991;57.150;-2.134;2024-03-25T02:35:43;5.60;99.90
23629;DHT22;11991;57.150;-2.134;2024-03-25T02:38:10;5.50;99.90
23629;DHT22;11991;57.150;-2.134;2024-03-25T02:40:37;5.40;99.90
23629;DHT22;11991;57.150;-2.134;2024-03-25T02:43:04;5.30;99.90
23629;DHT22;11991;57.150;-2.134;2024-03-25T02:45:33;5.30;99.90
23629;DHT22;11991;57.150;-2.134;2024-03-25T02:47:59;5.20;99.90
23629;DHT22;11991;57.150;-2.134;2024-03-25T02:50:25;5.20;99.90
23629;DHT22;11991;57.150;-2.134;2024-03-25T02:52:52;5.20;99.90
23629;DHT22;11991;57.150;-2.134;2024-03-25T02:55:18;5.20;99.90
23629;DHT22;11991;57.150;-2.134;2024-03-25T02:57:44;5.20;99.90
23629;DHT22;11991;57.150;-2.134;2024-03-25T03:00:11;5.20;99.90
23629;DHT22;11991;57.150;-2.134;2024-03-25T03:02:37;5.30;99.90
23629;DHT22;11991;57.150;-2.134;2024-03-25T03:05:03;5.30;99.90
23629;DHT22;11991;57.150;-2.134;2024-03-25T03:07:30;5.40;99.90
23629;DHT22;11991;57.150;-2.134;2024-03-25T03:09:56;5.40;99.90
23629;DHT22;11991;57.150;-2.134;2024-03-25T03:12:22;5.40;99.90
23629;DHT22;11991;57.150;-2.134;2024-03-25T03:14:48;5.50;99.90
23629;DHT22;11991;57.150;-2.134;2024-03-25T03:17:14;5.50;99.90
23629;DHT22;11991;57.150;-2.134;2024-03-25T03:19:41;5.50;99.90
23629;DHT22;11991;57.150;-2.134;2024-03-25T03:22:07;5.60;99.90
23629;DHT22;11991;57.150;-2.134;2024-03-25T03:24:33;5.60;99.90
23629;DHT22;11991;57.150;-2.134;2024-03-25T03:27:00;5.60;99.90
23629;DHT22;11991;57.150;-2.134;2024-03-25T03:29:26;5.60;99.90
23629;DHT22;11991;57.150;-2.134;2024-03-25T03:31:52;5.60;99.90
23629;DHT22;11991;57.150;-2.134;2024-03-25T03:34:18;5.70;99.90
23629;DHT22;11991;57.150;-2.134;2024-03-25T03:36:44;5.70;99.90
23629;DHT22;11991;57.150;-2.134;2024-03-25T03:39:11;5.70;99.90
23629;DHT22;11991;57.150;-2.134;2024-03-25T03:41:37;5.70;99.90
23629;DHT22;11991;57.150;-2.134;2024-03-25T03:44:04;5.70;99.90
23629;DHT22;11991;57.150;-2.134;2024-03-25T03:46:30;5.70;99.90
23629;DHT22;11991;57.150;-2.134;2024-03-25T03:48:56;5.80;99.90
23629;DHT22;11991;57.150;-2.134;2024-03-25T03:51:22;5.70;99.90
23629;DHT22;11991;57.150;-2.134;2024-03-25T03:53:48;5.70;99.90
23629;DHT22;11991;57.150;-2.134;2024-03-25T03:56:14;5.70;99.90
23629;DHT22;11991;57.150;-2.134;2024-03-25T03:58:40;5.70;99.90
23629;DHT22;11991;57.150;-2.134;2024-03-25T04:01:17;5.60;99.90
23629;DHT22;11991;57.150;-2.134;2024-03-25T04:03:44;5.60;99.90
23629;DHT22;11991;57.150;-2.134;2024-03-25T04:06:11;5.50;99.90
23629;DHT22;11991;57.150;-2.134;2024-03-25T04:08:39;5.50;99.90
23629;DHT22;11991;57.150;-2.134;2024-03-25T04:11:06;5.50;99.90
23629;DHT22;11991;57.150;-2.134;2024-03-25T04:13:36;5.40;99.90
23629;DHT22;11991;57.150;-2.134;2024-03-25T04:16:04;5.40;99.90
23629;DHT22;11991;57.150;-2.134;2024-03-25T04:18:31;5.30;99.90
23629;DHT22;11991;57.150;-2.134;2024-03-25T04:20:58;5.30;99.90
23629;DHT22;11991;57.150;-2.134;2024-03-25T04:23:25;5.20;99.90
23629;DHT22;11991;57.150;-2.134;2024-03-25T04:25:51;5.10;99.90
23629;DHT22;11991;57.150;-2.134;2024-03-25T04:28:17;5.00;99.90
23629;DHT22;11991;57.150;-2.134;2024-03-25T04:30:43;5.00;99.90
23629;DHT22;11991;57.150;-2.134;2024-03-25T04:33:16;5.00;99.90
23629;DHT22;11991;57.150;-2.134;2024-03-25T04:35:42;5.00;99.90
23629;DHT22;11991;57.150;-2.134;2024-03-25T04:38:08;5.00;99.90
23629;DHT22;11991;57.150;-2.134;2024-03-25T04:40:36;5.00;99.90
23629;DHT22;11991;57.150;-2.134;2024-03-25T04:43:02;5.00;99.90
23629;DHT22;11991;57.150;-2.134;2024-03-25T04:45:28;5.00;99.90
23629;DHT22;11991;57.150;-2.134;2024-03-25T04:47:54;5.10;99.90
23629;DHT22;11991;57.150;-2.134;2024-03-25T04:50:21;5.10;99.90
23629;DHT22;11991;57.150;-2.134;2024-03-25T04:52:47;5.10;99.90
23629;DHT22;11991;57.150;-2.134;2024-03-25T04:55:13;5.10;99.90
23629;DHT22;11991;57.150;-2.134;2024-03-25T04:57:39;5.10;99.90
23629;DHT22;11991;57.150;-2.134;2024-03-25T05:00:06;5.10;99.90
23629;DHT22;11991;57.150;-2.134;2024-03-25T05:02:33;5.10;99.90
23629;DHT22;11991;57.150;-2.134;2024-03-25T05:04:59;5.00;99.90
23629;DHT22;11991;57.150;-2.134;2024-03-25T05:07:25;5.00;99.90
23629;DHT22;11991;57.150;-2.134;2024-03-25T05:09:51;5.00;99.90
23629;DHT22;11991;57.150;-2.134;2024-03-25T05:12:17;5.00;99.90
23629;DHT22;11991;57.150;-2.134;2024-03-25T05:14:43;5.00;99.90
23629;DHT22;11991;57.150;-2.134;2024-03-25T05:17:09;5.00;99.90
23629;DHT22;11991;57.150;-2.134;2024-03-25T05:19:35;5.10;99.90
23629;DHT22;11991;57.150;-2.134;2024-03-25T05:22:02;5.10;99.90
23629;DHT22;11991;57.150;-2.134;2024-03-25T05:24:28;5.10;99.90
23629;DHT22;11991;57.150;-2.134;2024-03-25T05:26:54;5.10;99.90
23629;DHT22;11991;57.150;-2.134;2024-03-25T05:29:20;5.10;99.90
23629;DHT22;11991;57.150;-2.134;2024-03-25T05:31:58;5.20;99.90
23629;DHT22;11991;57.150;-2.134;2024-03-25T05:34:25;5.20;99.90
23629;DHT22;11991;57.150;-2.134;2024-03-25T05:36:51;5.10;99.90
23629;DHT22;11991;57.150;-2.134;2024-03-25T05:39:18;5.10;99.90
23629;DHT22;11991;57.150;-2.134;2024-03-25T05:41:44;5.10;99.90
23629;DHT22;11991;57.150;-2.134;2024-03-25T05:44:11;5.10;99.90
23629;DHT22;11991;57.150;-2.134;2024-03-25T05:46:37;5.00;99.90
23629;DHT22;11991;57.150;-2.134;2024-03-25T05:49:04;5.00;99.90
23629;DHT22;11991;57.150;-2.134;2024-03-25T05:51:31;5.00;99.90
23629;DHT22;11991;57.150;-2.134;2024-03-25T05:53:57;5.00;99.90
23629;DHT22;11991;57.150;-2.134;2024-03-25T05:56:23;5.00;99.90
23629;DHT22;11991;57.150;-2.134;2024-03-25T05:58:50;5.10;99.90
23629;DHT22;11991;57.150;-2.134;2024-03-25T06:01:17;5.20;99.90
23629;DHT22;11991;57.150;-2.134;2024-03-25T06:03:43;5.20;99.90
23629;DHT22;11991;57.150;-2.134;2024-03-25T06:06:09;5.30;99.90
23629;DHT22;11991;57.150;-2.134;2024-03-25T06:08:35;5.40;99.90
23629;DHT22;11991;57.150;-2.134;2024-03-25T06:11:03;5.40;99.90
23629;DHT22;11991;57.150;-2.134;2024-03-25T06:13:30;5.40;99.90
23629;DHT22;11991;57.150;-2.134;2024-03-25T06:15:56;5.40;99.90
23629;DHT22;11991;57.150;-2.134;2024-03-25T06:18:22;5.40;99.90
23629;DHT22;11991;57.150;-2.134;2024-03-25T06:20:48;5.40;99.90
23629;DHT22;11991;57.150;-2.134;2024-03-25T06:23:27;5.40;99.90
23629;DHT22;11991;57.150;-2.134;2024-03-25T06:25:55;5.40;99.90
23629;DHT22;11991;57.150;-2.134;2024-03-25T06:28:22;5.40;99.90
23629;DHT22;11991;57.150;-2.134;2024-03-25T06:30:49;5.40;99.90
23629;DHT22;11991;57.150;-2.134;2024-03-25T06:33:34;5.40;99.90
23629;DHT22;11991;57.150;-2.134;2024-03-25T06:36:20;5.40;99.90
23629;DHT22;11991;57.150;-2.134;2024-03-25T06:38:46;5.40;99.90
23629;DHT22;11991;57.150;-2.134;2024-03-25T06:41:12;5.40;99.90
23629;DHT22;11991;57.150;-2.134;2024-03-25T06:43:39;5.40;99.90
23629;DHT22;11991;57.150;-2.134;2024-03-25T06:46:06;5.40;99.90
23629;DHT22;11991;57.150;-2.134;2024-03-25T06:48:35;5.40;99.90
23629;DHT22;11991;57.150;-2.134;2024-03-25T06:51:04;5.40;99.90
23629;DHT22;11991;57.150;-2.134;2024-03-25T06:53:30;5.40;99.90
23629;DHT22;11991;57.150;-2.134;2024-03-25T06:55:59;5.40;99.90
23629;DHT22;11991;57.150;-2.134;2024-03-25T06:58:26;5.40;99.90
23629;DHT22;11991;57.150;-2.134;2024-03-25T07:00:54;5.40;99.90
23629;DHT22;11991;57.150;-2.134;2024-03-25T07:03:22;5.40;99.90
23629;DHT22;11991;57.150;-2.134;2024-03-25T07:05:50;5.40;99.90
23629;DHT22;11991;57.150;-2.134;2024-03-25T07:08:18;5.40;99.90
23629;DHT22;11991;57.150;-2.134;2024-03-25T07:10:47;5.50;99.90
23629;DHT22;11991;57.150;-2.134;2024-03-25T07:13:13;5.50;99.90
23629;DHT22;11991;57.150;-2.134;2024-03-25T07:15:40;5.50;99.90
23629;DHT22;11991;57.150;-2.134;2024-03-25T07:18:06;5.40;99.90
23629;DHT22;11991;57.150;-2.134;2024-03-25T07:20:32;5.40;99.90
23629;DHT22;11991;57.150;-2.134;2024-03-25T07:22:59;5.40;99.90
23629;DHT22;11991;57.150;-2.134;2024-03-25T07:25:25;5.30;99.90
23629;DHT22;11991;57.150;-2.134;2024-03-25T07:27:52;5.30;99.90
23629;DHT22;11991;57.150;-2.134;2024-03-25T07:30:18;5.20;99.90
23629;DHT22;11991;57.150;-2.134;2024-03-25T07:32:45;5.20;99.90
23629;DHT22;11991;57.150;-2.134;2024-03-25T07:35:12;5.20;99.90
23629;DHT22;11991;57.150;-2.134;2024-03-25T07:37:38;5.20;99.90
23629;DHT22;11991;57.150;-2.134;2024-03-25T07:40:07;5.20;99.90
23629;DHT22;11991;57.150;-2.134;2024-03-25T07:42:35;5.20;99.90
23629;DHT22;11991;57.150;-2.134;2024-03-25T07:45:01;5.20;99.90
23629;DHT22;11991;57.150;-2.134;2024-03-25T07:47:28;5.30;99.90
23629;DHT22;11991;57.150;-2.134;2024-03-25T07:49:54;5.40;99.90
23629;DHT22;11991;57.150;-2.134;2024-03-25T07:52:20;5.40;99.90
23629;DHT22;11991;57.150;-2.134;2024-03-25T07:54:46;5.50;99.90
23629;DHT22;11991;57.150;-2.134;2024-03-25T07:57:13;5.50;99.90
23629;DHT22;11991;57.150;-2.134;2024-03-25T07:59:39;5.50;99.90
23629;DHT22;11991;57.150;-2.134;2024-03-25T08:02:05;5.60;99.90
23629;DHT22;11991;57.150;-2.134;2024-03-25T08:04:31;5.60;99.90
23629;DHT22;11991;57.150;-2.134;2024-03-25T08:06:57;5.60;99.90
23629;DHT22;11991;57.150;-2.134;2024-03-25T08:09:23;5.70;99.90
23629;DHT22;11991;57.150;-2.134;2024-03-25T08:11:49;5.60;99.90
23629;DHT22;11991;57.150;-2.134;2024-03-25T08:14:16;5.60;99.90
23629;DHT22;11991;57.150;-2.134;2024-03-25T08:16:42;5.50;99.90
23629;DHT22;11991;57.150;-2.134;2024-03-25T08:19:08;5.40;99.90
23629;DHT22;11991;57.150;-2.134;2024-03-25T08:21:34;5.40;99.90
23629;DHT22;11991;57.150;-2.134;2024-03-25T08:24:00;5.30;99.90
23629;DHT22;11991;57.150;-2.134;2024-03-25T08:26:26;5.30;99.90
23629;DHT22;11991;57.150;-2.134;2024-03-25T08:28:52;5.30;99.90
23629;DHT22;11991;57.150;-2.134;2024-03-25T08:31:19;5.30;99.90
23629;DHT22;11991;57.150;-2.134;2024-03-25T08:33:45;5.30;99.90
23629;DHT22;11991;57.150;-2.134;2024-03-25T08:36:12;5.40;99.90
23629;DHT22;11991;57.150;-2.134;2024-03-25T08:38:38;5.50;99.90
23629;DHT22;11991;57.150;-2.134;2024-03-25T08:41:06;5.50;99.90
23629;DHT22;11991;57.150;-2.134;2024-03-25T08:43:32;5.60;99.90
23629;DHT22;11991;57.150;-2.134;2024-03-25T08:45:58;5.60;99.90
23629;DHT22;11991;57.150;-2.134;2024-03-25T08:48:25;5.50;99.90
23629;DHT22;11991;57.150;-2.134;2024-03-25T08:50:51;5.60;99.90
23629;DHT22;11991;57.150;-2.134;2024-03-25T08:53:17;5.60;99.90
23629;DHT22;11991;57.150;-2.134;2024-03-25T08:55:47;5.60;99.90
23629;DHT22;11991;57.150;-2.134;2024-03-25T08:58:14;5.60;99.90
23629;DHT22;11991;57.150;-2.134;2024-03-25T09:00:41;5.60;99.90
23629;DHT22;11991;57.150;-2.134;2024-03-25T09:03:07;5.70;99.90
23629;DHT22;11991;57.150;-2.134;2024-03-25T09:05:34;5.80;99.90
23629;DHT22;11991;57.150;-2.134;2024-03-25T09:08:01;5.80;99.90
23629;DHT22;11991;57.150;-2.134;2024-03-25T09:10:27;5.90;99.90
23629;DHT22;11991;57.150;-2.134;2024-03-25T09:13:12;6.00;99.90
23629;DHT22;11991;57.150;-2.134;2024-03-25T09:15:39;6.10;99.90
23629;DHT22;11991;57.150;-2.134;2024-03-25T09:18:05;6.10;99.90
23629;DHT22;11991;57.150;-2.134;2024-03-25T09:20:31;6.20;99.90
23629;DHT22;11991;57.150;-2.134;2024-03-25T09:22:57;6.20;99.90
23629;DHT22;11991;57.150;-2.134;2024-03-25T09:25:23;6.30;99.90
23629;DHT22;11991;57.150;-2.134;2024-03-25T09:27:50;6.40;99.90
23629;DHT22;11991;57.150;-2.134;2024-03-25T09:30:17;6.50;99.90
23629;DHT22;11991;57.150;-2.134;2024-03-25T09:32:46;6.50;99.90
23629;DHT22;11991;57.150;-2.134;2024-03-25T09:35:12;6.50;99.90
23629;DHT22;11991;57.150;-2.134;2024-03-25T09:37:38;6.40;99.90
23629;DHT22;11991;57.150;-2.134;2024-03-25T09:40:05;6.40;99.90
23629;DHT22;11991;57.150;-2.134;2024-03-25T09:42:47;6.50;99.90
23629;DHT22;11991;57.150;-2.134;2024-03-25T09:45:16;6.40;99.90
23629;DHT22;11991;57.150;-2.134;2024-03-25T09:47:47;6.50;99.90
23629;DHT22;11991;57.150;-2.134;2024-03-25T09:50:14;6.50;99.90
23629;DHT22;11991;57.150;-2.134;2024-03-25T09:52:46;6.50;99.90
23629;DHT22;11991;57.150;-2.134;2024-03-25T09:55:12;6.60;99.90
23629;DHT22;11991;57.150;-2.134;2024-03-25T09:57:39;6.60;99.90
23629;DHT22;11991;57.150;-2.134;2024-03-25T10:00:08;6.60;99.90
23629;DHT22;11991;57.150;-2.134;2024-03-25T10:02:40;6.70;99.90
23629;DHT22;11991;57.150;-2.134;2024-03-25T10:05:07;6.70;99.90
23629;DHT22;11991;57.150;-2.134;2024-03-25T10:07:34;6.80;99.90
23629;DHT22;11991;57.150;-2.134;2024-03-25T10:10:06;6.70;99.90
23629;DHT22;11991;57.150;-2.134;2024-03-25T10:12:35;6.70;99.90
23629;DHT22;11991;57.150;-2.134;2024-03-25T10:15:01;6.70;99.90
23629;DHT22;11991;57.150;-2.134;2024-03-25T10:17:27;6.70;99.90
23629;DHT22;11991;57.150;-2.134;2024-03-25T10:19:54;6.80;99.90
23629;DHT22;11991;57.150;-2.134;2024-03-25T10:22:20;6.80;99.90
23629;DHT22;11991;57.150;-2.134;2024-03-25T10:24:47;6.80;99.90
23629;DHT22;11991;57.150;-2.134;2024-03-25T10:27:21;6.80;99.90
23629;DHT22;11991;57.150;-2.134;2024-03-25T10:29:51;6.80;99.90
23629;DHT22;11991;57.150;-2.134;2024-03-25T10:32:18;6.90;99.90
23629;DHT22;11991;57.150;-2.134;2024-03-25T10:34:44;6.90;99.90
23629;DHT22;11991;57.150;-2.134;2024-03-25T10:37:11;6.90;99.90
23629;DHT22;11991;57.150;-2.134;2024-03-25T10:39:49;6.90;99.90
23629;DHT22;11991;57.150;-2.134;2024-03-25T10:42:20;6.90;99.90
23629;DHT22;11991;57.150;-2.134;2024-03-25T10:44:49;7.00;99.90
23629;DHT22;11991;57.150;-2.134;2024-03-25T10:47:26;7.00;99.90
23629;DHT22;11991;57.150;-2.134;2024-03-25T10:49:59;7.00;99.90
23629;DHT22;11991;57.150;-2.134;2024-03-25T10:52:27;7.00;99.90
23629;DHT22;11991;57.150;-2.134;2024-03-25T10:54:56;7.00;99.90
23629;DHT22;11991;57.150;-2.134;2024-03-25T10:57:23;7.00;99.90
23629;DHT22;11991;57.150;-2.134;2024-03-25T10:59:49;6.90;99.90
23629;DHT22;11991;57.150;-2.134;2024-03-25T11:02:16;6.90;99.90
23629;DHT22;11991;57.150;-2.134;2024-03-25T11:04:47;6.90;99.90
23629;DHT22;11991;57.150;-2.134;2024-03-25T11:07:15;6.90;99.90
23629;DHT22;11991;57.150;-2.134;2024-03-25T11:09:42;6.80;99.90
23629;DHT22;11991;57.150;-2.134;2024-03-25T11:12:12;6.80;99.90
23629;DHT22;11991;57.150;-2.134;2024-03-25T11:14:40;6.80;99.90
23629;DHT22;11991;57.150;-2.134;2024-03-25T11:17:17;6.80;99.90
23629;DHT22;11991;57.150;-2.134;2024-03-25T11:19:43;6.70;99.90
23629;DHT22;11991;57.150;-2.134;2024-03-25T11:22:10;6.70;99.90
23629;DHT22;11991;57.150;-2.134;2024-03-25T11:24:37;6.70;99.90
23629;DHT22;11991;57.150;-2.134;2024-03-25T11:27:06;6.80;99.90
23629;DHT22;11991;57.150;-2.134;2024-03-25T11:29:33;6.70;99.90
23629;DHT22;11991;57.150;-2.134;2024-03-25T11:32:03;6.70;99.90
23629;DHT22;11991;57.150;-2.134;2024-03-25T11:34:29;6.80;99.90
23629;DHT22;11991;57.150;-2.134;2024-03-25T11:36:56;6.80;99.90
23629;DHT22;11991;57.150;-2.134;2024-03-25T11:39:24;6.80;99.90
23629;DHT22;11991;57.150;-2.134;2024-03-25T11:41:54;6.70;99.90
23629;DHT22;11991;57.150;-2.134;2024-03-25T11:44:21;6.70;99.90
23629;DHT22;11991;57.150;-2.134;2024-03-25T11:46:51;6.70;99.90
23629;DHT22;11991;57.150;-2.134;2024-03-25T11:49:21;6.70;99.90
23629;DHT22;11991;57.150;-2.134;2024-03-25T11:51:47;6.80;99.90
23629;DHT22;11991;57.150;-2.134;2024-03-25T11:54:13;6.80;99.90
23629;DHT22;11991;57.150;-2.134;2024-03-25T11:56:40;6.80;99.90
23629;DHT22;11991;57.150;-2.134;2024-03-25T11:59:07;6.90;99.90
23629;DHT22;11991;57.150;-2.134;2024-03-25T12:01:34;6.90;99.90
23629;DHT22;11991;57.150;-2.134;2024-03-25T12:04:11;6.90;99.90
23629;DHT22;11991;57.150;-2.134;2024-03-25T12:06:38;6.90;99.90
23629;DHT22;11991;57.150;-2.134;2024-03-25T12:09:04;6.90;99.90
23629;DHT22;11991;57.150;-2.134;2024-03-25T12:11:49;6.90;99.90
23629;DHT22;11991;57.150;-2.134;2024-03-25T12:14:15;6.90;99.90
23629;DHT22;11991;57.150;-2.134;2024-03-25T12:16:42;6.90;99.90
23629;DHT22;11991;57.150;-2.134;2024-03-25T12:19:08;6.80;99.90
23629;DHT22;11991;57.150;-2.134;2024-03-25T12:21:34;6.80;99.90
23629;DHT22;11991;57.150;-2.134;2024-03-25T12:24:00;6.80;99.90
23629;DHT22;11991;57.150;-2.134;2024-03-25T12:26:26;6.80;99.90
23629;DHT22;11991;57.150;-2.134;2024-03-25T12:28:53;6.80;99.90
23629;DHT22;11991;57.150;-2.134;2024-03-25T12:31:19;6.80;99.90
23629;DHT22;11991;57.150;-2.134;2024-03-25T12:33:49;6.90;99.90
23629;DHT22;11991;57.150;-2.134;2024-03-25T12:36:15;6.90;99.90
23629;DHT22;11991;57.150;-2.134;2024-03-25T12:38:41;6.90;99.90
23629;DHT22;11991;57.150;-2.134;2024-03-25T12:41:11;7.00;99.90
23629;DHT22;11991;57.150;-2.134;2024-03-25T12:43:43;7.00;99.90
23629;DHT22;11991;57.150;-2.134;2024-03-25T12:46:10;7.10;99.90
23629;DHT22;11991;57.150;-2.134;2024-03-25T12:48:37;7.10;99.90
23629;DHT22;11991;57.150;-2.134;2024-03-25T12:51:03;7.10;99.90
23629;DHT22;11991;57.150;-2.134;2024-03-25T12:53:30;7.10;99.90
23629;DHT22;11991;57.150;-2.134;2024-03-25T12:55:57;7.10;99.90
23629;DHT22;11991;57.150;-2.134;2024-03-25T12:58:23;7.10;99.90
23629;DHT22;11991;57.150;-2.134;2024-03-25T13:00:49;7.10;99.90
23629;DHT22;11991;57.150;-2.134;2024-03-25T13:03:15;7.10;99.90
23629;DHT22;11991;57.150;-2.134;2024-03-25T13:05:43;7.10;99.90
23629;DHT22;11991;57.150;-2.134;2024-03-25T13:08:10;7.00;99.90
23629;DHT22;11991;57.150;-2.134;2024-03-25T13:10:36;7.00;99.90
23629;DHT22;11991;57.150;-2.134;2024-03-25T13:13:02;7.00;99.90
23629;DHT22;11991;57.150;-2.134;2024-03-25T13:15:28;7.00;99.90
23629;DHT22;11991;57.150;-2.134;2024-03-25T13:17:54;7.00;99.90
23629;DHT22;11991;57.150;-2.134;2024-03-25T13:20:21;7.00;99.90
23629;DHT22;11991;57.150;-2.134;2024-03-25T13:22:49;7.00;99.90
23629;DHT22;11991;57.150;-2.134;2024-03-25T13:25:15;7.00;99.90
23629;DHT22;11991;57.150;-2.134;2024-03-25T13:27:41;7.00;99.90
23629;DHT22;11991;57.150;-2.134;2024-03-25T13:30:08;6.90;99.90
23629;DHT22;11991;57.150;-2.134;2024-03-25T13:32:34;6.90;99.90
23629;DHT22;11991;57.150;-2.134;2024-03-25T13:35:01;7.00;99.90
23629;DHT22;11991;57.150;-2.134;2024-03-25T13:37:27;7.00;99.90
23629;DHT22;11991;57.150;-2.134;2024-03-25T13:39:53;7.10;99.90
23629;DHT22;11991;57.150;-2.134;2024-03-25T13:42:19;7.10;99.90
23629;DHT22;11991;57.150;-2.134;2024-03-25T13:44:45;7.10;99.90
23629;DHT22;11991;57.150;-2.134;2024-03-25T13:47:11;7.10;99.90
23629;DHT22;11991;57.150;-2.134;2024-03-25T13:49:37;7.00;99.90
23629;DHT22;11991;57.150;-2.134;2024-03-25T13:52:05;7.00;99.90
23629;DHT22;11991;57.150;-2.134;2024-03-25T13:54:31;7.00;99.90
23629;DHT22;11991;57.150;-2.134;2024-03-25T13:56:57;6.90;99.90
23629;DHT22;11991;57.150;-2.134;2024-03-25T13:59:23;6.90;99.90
23629;DHT22;11991;57.150;-2.134;2024-03-25T14:01:50;6.90;99.90
23629;DHT22;11991;57.150;-2.134;2024-03-25T14:04:17;7.00;99.90
23629;DHT22;11991;57.150;-2.134;2024-03-25T14:06:44;7.00;99.90
23629;DHT22;11991;57.150;-2.134;2024-03-25T14:09:27;7.00;99.90
23629;DHT22;11991;57.150;-2.134;2024-03-25T14:11:54;7.00;99.90
23629;DHT22;11991;57.150;-2.134;2024-03-25T14:14:20;7.10;99.90
23629;DHT22;11991;57.150;-2.134;2024-03-25T14:16:46;7.10;99.90
23629;DHT22;11991;57.150;-2.134;2024-03-25T14:19:12;7.00;99.90
23629;DHT22;11991;57.150;-2.134;2024-03-25T14:21:38;7.10;99.90
23629;DHT22;11991;57.150;-2.134;2024-03-25T14:24:07;7.10;99.90
23629;DHT22;11991;57.150;-2.134;2024-03-25T14:26:34;7.10;99.90
23629;DHT22;11991;57.150;-2.134;2024-03-25T14:29:00;7.10;99.90
23629;DHT22;11991;57.150;-2.134;2024-03-25T14:31:26;7.00;99.90
23629;DHT22;11991;57.150;-2.134;2024-03-25T14:33:55;7.00;99.90
23629;DHT22;11991;57.150;-2.134;2024-03-25T14:36:21;7.00;99.90
23629;DHT22;11991;57.150;-2.134;2024-03-25T14:38:48;6.90;99.90
23629;DHT22;11991;57.150;-2.134;2024-03-25T14:41:18;6.90;99.90
23629;DHT22;11991;57.150;-2.134;2024-03-25T14:43:45;6.80;99.90
23629;DHT22;11991;57.150;-2.134;2024-03-25T14:46:11;6.80;99.90
23629;DHT22;11991;57.150;-2.134;2024-03-25T14:48:37;6.80;99.90
23629;DHT22;11991;57.150;-2.134;2024-03-25T14:51:04;6.80;99.90
23629;DHT22;11991;57.150;-2.134;2024-03-25T14:53:30;6.80;99.90
23629;DHT22;11991;57.150;-2.134;2024-03-25T14:55:56;6.80;99.90
23629;DHT22;11991;57.150;-2.134;2024-03-25T14:58:22;6.80;99.90
23629;DHT22;11991;57.150;-2.134;2024-03-25T15:00:48;6.80;99.90
23629;DHT22;11991;57.150;-2.134;2024-03-25T15:03:15;6.80;99.90
23629;DHT22;11991;57.150;-2.134;2024-03-25T15:05:41;6.80;99.90
23629;DHT22;11991;57.150;-2.134;2024-03-25T15:08:07;6.80;99.90
23629;DHT22;11991;57.150;-2.134;2024-03-25T15:10:36;6.70;99.90
23629;DHT22;11991;57.150;-2.134;2024-03-25T15:13:02;6.70;99.90
23629;DHT22;11991;57.150;-2.134;2024-03-25T15:15:28;6.60;99.90
23629;DHT22;11991;57.150;-2.134;2024-03-25T15:18:00;6.60;99.90
23629;DHT22;11991;57.150;-2.134;2024-03-25T15:20:26;6.60;99.90
23629;DHT22;11991;57.150;-2.134;2024-03-25T15:22:52;6.50;99.90
23629;DHT22;11991;57.150;-2.134;2024-03-25T15:25:18;6.50;99.90
23629;DHT22;11991;57.150;-2.134;2024-03-25T15:27:45;6.50;99.90
23629;DHT22;11991;57.150;-2.134;2024-03-25T15:30:11;6.50;99.90